sensor_id;sensor_type;location;lat;lon;timestamp;P1;durP1;ratioP1;P2;durP2;ratioP2
68479;SDS011;55469;48.934;12.050;2022-07-12T00:02:16;0.80;;;0.57;;
68479;SDS011;55469;48.934;12.050;2022-07-12T00:04:41;0.63;;;0.50;;
68479;SDS011;55469;48.934;12.050;2022-07-12T00:07:07;0.50;;;0.50;;
68479;SDS011;55469;48.934;12.050;2022-07-12T00:09:33;0.50;;;0.50;;
68479;SDS011;55469;48.934;12.050;2022-07-12T00:11:59;0.43;;;0.43;;
68479;SDS011;55469;48.934;12.050;2022-07-12T00:14:25;1.02;;;0.60;;
68479;SDS011;55469;48.934;12.050;2022-07-12T00:16:51;0.60;;;0.60;;
68479;SDS011;55469;48.934;12.050;2022-07-12T00:19:17;3.63;;;0.63;;
68479;SDS011;55469;48.934;12.050;2022-07-12T00:21:43;0.68;;;0.63;;
68479;SDS011;55469;48.934;12.050;2022-07-12T00:24:09;0.52;;;0.52;;
68479;SDS011;55469;48.934;12.050;2022-07-12T00:26:35;0.50;;;0.50;;
68479;SDS011;55469;48.934;12.050;2022-07-12T00:29:01;0.88;;;0.60;;
68479;SDS011;55469;48.934;12.050;2022-07-12T00:31:26;0.50;;;0.50;;
68479;SDS011;55469;48.934;12.050;2022-07-12T00:33:52;0.65;;;0.45;;
68479;SDS011;55469;48.934;12.050;2022-07-12T00:36:18;0.50;;;0.50;;
68479;SDS011;55469;48.934;12.050;2022-07-12T00:38:45;0.50;;;0.50;;
68479;SDS011;55469;48.934;12.050;2022-07-12T00:41:10;1.38;;;0.50;;
68479;SDS011;55469;48.934;12.050;2022-07-12T00:43:36;0.57;;;0.55;;
68479;SDS011;55469;48.934;12.050;2022-07-12T00:46:02;1.10;;;0.35;;
68479;SDS011;55469;48.934;12.050;2022-07-12T00:48:28;0.60;;;0.60;;
68479;SDS011;55469;48.934;12.050;2022-07-12T00:50:57;0.50;;;0.50;;
68479;SDS011;55469;48.934;12.050;2022-07-12T00:53:23;0.50;;;0.50;;
68479;SDS011;55469;48.934;12.050;2022-07-12T00:55:54;0.95;;;0.57;;
68479;SDS011;55469;48.934;12.050;2022-07-12T00:58:21;0.60;;;0.50;;
68479;SDS011;55469;48.934;12.050;2022-07-12T01:00:48;1.40;;;0.60;;
68479;SDS011;55469;48.934;12.050;2022-07-12T01:03:14;0.85;;;0.60;;
68479;SDS011;55469;48.934;12.050;2022-07-12T01:05:41;1.90;;;0.60;;
68479;SDS011;55469;48.934;12.050;2022-07-12T01:08:06;0.43;;;0.43;;
68479;SDS011;55469;48.934;12.050;2022-07-12T01:10:33;1.02;;;0.50;;
68479;SDS011;55469;48.934;12.050;2022-07-12T01:13:00;0.95;;;0.60;;
68479;SDS011;55469;48.934;12.050;2022-07-12T01:15:26;0.50;;;0.50;;
68479;SDS011;55469;48.934;12.050;2022-07-12T01:17:54;1.58;;;0.60;;
68479;SDS011;55469;48.934;12.050;2022-07-12T01:20:21;0.60;;;0.60;;
68479;SDS011;55469;48.934;12.050;2022-07-12T01:22:54;0.50;;;0.50;;
68479;SDS011;55469;48.934;12.050;2022-07-12T01:25:24;0.57;;;0.57;;
68479;SDS011;55469;48.934;12.050;2022-07-12T01:27:51;0.98;;;0.50;;
68479;SDS011;55469;48.934;12.050;2022-07-12T01:30:17;1.58;;;0.50;;
68479;SDS011;55469;48.934;12.050;2022-07-12T01:32:43;0.55;;;0.50;;
68479;SDS011;55469;48.934;12.050;2022-07-12T01:35:09;0.40;;;0.40;;
68479;SDS011;55469;48.934;12.050;2022-07-12T01:37:42;0.35;;;0.35;;
68479;SDS011;55469;48.934;12.050;2022-07-12T01:40:09;0.80;;;0.60;;
68479;SDS011;55469;48.934;12.050;2022-07-12T01:42:39;0.70;;;0.60;;
68479;SDS011;55469;48.934;12.050;2022-07-12T01:45:06;0.50;;;0.50;;
68479;SDS011;55469;48.934;12.050;2022-07-12T01:47:33;0.50;;;0.50;;
68479;SDS011;55469;48.934;12.050;2022-07-12T01:50:00;2.28;;;0.50;;
68479;SDS011;55469;48.934;12.050;2022-07-12T01:52:27;0.70;;;0.50;;
68479;SDS011;55469;48.934;12.050;2022-07-12T01:54:53;1.05;;;0.50;;
68479;SDS011;55469;48.934;12.050;2022-07-12T01:57:20;0.63;;;0.63;;
68479;SDS011;55469;48.934;12.050;2022-07-12T01:59:46;0.73;;;0.50;;
68479;SDS011;55469;48.934;12.050;2022-07-12T02:02:13;0.82;;;0.55;;
68479;SDS011;55469;48.934;12.050;2022-07-12T02:04:39;0.52;;;0.52;;
68479;SDS011;55469;48.934;12.050;2022-07-12T02:07:04;0.60;;;0.60;;
68479;SDS011;55469;48.934;12.050;2022-07-12T02:09:30;0.40;;;0.40;;
68479;SDS011;55469;48.934;12.050;2022-07-12T02:11:56;0.50;;;0.50;;
68479;SDS011;55469;48.934;12.050;2022-07-12T02:14:22;0.50;;;0.50;;
68479;SDS011;55469;48.934;12.050;2022-07-12T02:16:49;0.88;;;0.50;;
68479;SDS011;55469;48.934;12.050;2022-07-12T02:19:15;0.60;;;0.60;;
68479;SDS011;55469;48.934;12.050;2022-07-12T02:21:41;0.50;;;0.50;;
68479;SDS011;55469;48.934;12.050;2022-07-12T02:24:07;1.05;;;0.65;;
68479;SDS011;55469;48.934;12.050;2022-07-12T02:26:33;0.52;;;0.52;;
68479;SDS011;55469;48.934;12.050;2022-07-12T02:29:02;0.50;;;0.50;;
68479;SDS011;55469;48.934;12.050;2022-07-12T02:31:29;0.60;;;0.60;;
68479;SDS011;55469;48.934;12.050;2022-07-12T02:33:56;0.50;;;0.50;;
68479;SDS011;55469;48.934;12.050;2022-07-12T02:36:22;0.70;;;0.70;;
68479;SDS011;55469;48.934;12.050;2022-07-12T02:38:48;0.70;;;0.50;;
68479;SDS011;55469;48.934;12.050;2022-07-12T02:41:14;0.50;;;0.50;;
68479;SDS011;55469;48.934;12.050;2022-07-12T02:43:40;0.70;;;0.50;;
68479;SDS011;55469;48.934;12.050;2022-07-12T02:46:07;1.38;;;0.50;;
68479;SDS011;55469;48.934;12.050;2022-07-12T02:48:37;1.42;;;0.70;;
68479;SDS011;55469;48.934;12.050;2022-07-12T02:51:04;0.98;;;0.50;;
68479;SDS011;55469;48.934;12.050;2022-07-12T02:53:31;0.77;;;0.57;;
68479;SDS011;55469;48.934;12.050;2022-07-12T02:55:58;0.50;;;0.50;;
68479;SDS011;55469;48.934;12.050;2022-07-12T02:58:24;1.25;;;0.60;;
68479;SDS011;55469;48.934;12.050;2022-07-12T03:00:50;0.43;;;0.43;;
68479;SDS011;55469;48.934;12.050;2022-07-12T03:03:16;0.70;;;0.47;;
68479;SDS011;55469;48.934;12.050;2022-07-12T03:05:42;0.57;;;0.57;;
68479;SDS011;55469;48.934;12.050;2022-07-12T03:08:09;1.77;;;0.80;;
68479;SDS011;55469;48.934;12.050;2022-07-12T03:10:35;0.73;;;0.70;;
68479;SDS011;55469;48.934;12.050;2022-07-12T03:13:02;0.75;;;0.60;;
68479;SDS011;55469;48.934;12.050;2022-07-12T03:15:28;0.77;;;0.65;;
68479;SDS011;55469;48.934;12.050;2022-07-12T03:17:55;0.55;;;0.55;;
68479;SDS011;55469;48.934;12.050;2022-07-12T03:20:23;0.70;;;0.70;;
68479;SDS011;55469;48.934;12.050;2022-07-12T03:22:48;0.70;;;0.55;;
68479;SDS011;55469;48.934;12.050;2022-07-12T03:25:16;0.50;;;0.50;;
68479;SDS011;55469;48.934;12.050;2022-07-12T03:27:43;0.80;;;0.52;;
68479;SDS011;55469;48.934;12.050;2022-07-12T03:30:09;0.57;;;0.57;;
68479;SDS011;55469;48.934;12.050;2022-07-12T03:32:36;0.70;;;0.70;;
68479;SDS011;55469;48.934;12.050;2022-07-12T03:35:02;1.23;;;0.55;;
68479;SDS011;55469;48.934;12.050;2022-07-12T03:40:15;0.57;;;0.50;;
68479;SDS011;55469;48.934;12.050;2022-07-12T03:42:43;0.50;;;0.50;;
68479;SDS011;55469;48.934;12.050;2022-07-12T03:45:10;0.80;;;0.77;;
68479;SDS011;55469;48.934;12.050;2022-07-12T03:47:36;1.20;;;0.68;;
68479;SDS011;55469;48.934;12.050;2022-07-12T03:50:03;0.60;;;0.60;;
68479;SDS011;55469;48.934;12.050;2022-07-12T03:52:32;0.60;;;0.60;;
68479;SDS011;55469;48.934;12.050;2022-07-12T03:54:58;1.38;;;0.70;;
68479;SDS011;55469;48.934;12.050;2022-07-12T03:57:26;0.93;;;0.60;;
68479;SDS011;55469;48.934;12.050;2022-07-12T03:59:52;0.50;;;0.50;;
68479;SDS011;55469;48.934;12.050;2022-07-12T04:02:18;0.40;;;0.40;;
68479;SDS011;55469;48.934;12.050;2022-07-12T04:04:44;0.50;;;0.50;;
68479;SDS011;55469;48.934;12.050;2022-07-12T04:07:09;0.50;;;0.40;;
68479;SDS011;55469;48.934;12.050;2022-07-12T04:09:35;0.40;;;0.38;;
68479;SDS011;55469;48.934;12.050;2022-07-12T04:12:01;2.25;;;0.70;;
68479;SDS011;55469;48.934;12.050;2022-07-12T04:14:28;0.60;;;0.60;;
68479;SDS011;55469;48.934;12.050;2022-07-12T04:16:54;0.60;;;0.60;;
68479;SDS011;55469;48.934;12.050;2022-07-12T04:19:21;0.60;;;0.60;;
68479;SDS011;55469;48.934;12.050;2022-07-12T04:21:52;0.60;;;0.60;;
68479;SDS011;55469;48.934;12.050;2022-07-12T04:24:20;0.40;;;0.40;;
68479;SDS011;55469;48.934;12.050;2022-07-12T04:26:46;0.82;;;0.68;;
68479;SDS011;55469;48.934;12.050;2022-07-12T04:29:13;0.50;;;0.50;;
68479;SDS011;55469;48.934;12.050;2022-07-12T04:31:42;0.75;;;0.68;;
68479;SDS011;55469;48.934;12.050;2022-07-12T04:34:08;1.70;;;0.60;;
68479;SDS011;55469;48.934;12.050;2022-07-12T04:36:34;0.43;;;0.43;;
68479;SDS011;55469;48.934;12.050;2022-07-12T04:39:00;0.50;;;0.50;;
68479;SDS011;55469;48.934;12.050;2022-07-12T04:41:26;0.68;;;0.50;;
68479;SDS011;55469;48.934;12.050;2022-07-12T04:43:52;0.60;;;0.60;;
68479;SDS011;55469;48.934;12.050;2022-07-12T04:46:17;0.68;;;0.68;;
68479;SDS011;55469;48.934;12.050;2022-07-12T04:48:43;0.68;;;0.57;;
68479;SDS011;55469;48.934;12.050;2022-07-12T04:51:09;0.70;;;0.60;;
68479;SDS011;55469;48.934;12.050;2022-07-12T04:53:34;0.82;;;0.70;;
68479;SDS011;55469;48.934;12.050;2022-07-12T04:56:00;0.57;;;0.57;;
68479;SDS011;55469;48.934;12.050;2022-07-12T04:58:26;0.50;;;0.50;;
68479;SDS011;55469;48.934;12.050;2022-07-12T05:00:52;0.63;;;0.63;;
68479;SDS011;55469;48.934;12.050;2022-07-12T05:03:18;1.30;;;0.57;;
68479;SDS011;55469;48.934;12.050;2022-07-12T05:05:44;0.60;;;0.60;;
68479;SDS011;55469;48.934;12.050;2022-07-12T05:08:09;0.68;;;0.68;;
68479;SDS011;55469;48.934;12.050;2022-07-12T05:10:35;0.50;;;0.50;;
68479;SDS011;55469;48.934;12.050;2022-07-12T05:13:01;0.70;;;0.70;;
68479;SDS011;55469;48.934;12.050;2022-07-12T05:15:27;0.60;;;0.60;;
68479;SDS011;55469;48.934;12.050;2022-07-12T05:17:53;0.70;;;0.70;;
68479;SDS011;55469;48.934;12.050;2022-07-12T05:20:18;1.48;;;0.70;;
68479;SDS011;55469;48.934;12.050;2022-07-12T05:22:44;0.88;;;0.70;;
68479;SDS011;55469;48.934;12.050;2022-07-12T05:25:10;0.60;;;0.60;;
68479;SDS011;55469;48.934;12.050;2022-07-12T05:27:36;0.80;;;0.80;;
68479;SDS011;55469;48.934;12.050;2022-07-12T05:30:05;0.90;;;0.70;;
68479;SDS011;55469;48.934;12.050;2022-07-12T05:32:31;0.70;;;0.70;;
68479;SDS011;55469;48.934;12.050;2022-07-12T05:34:57;1.45;;;0.90;;
68479;SDS011;55469;48.934;12.050;2022-07-12T05:37:23;0.80;;;0.80;;
68479;SDS011;55469;48.934;12.050;2022-07-12T05:39:50;1.25;;;0.88;;
68479;SDS011;55469;48.934;12.050;2022-07-12T05:42:19;0.70;;;0.70;;
68479;SDS011;55469;48.934;12.050;2022-07-12T05:44:45;1.13;;;0.95;;
68479;SDS011;55469;48.934;12.050;2022-07-12T05:47:11;1.15;;;0.80;;
68479;SDS011;55469;48.934;12.050;2022-07-12T05:49:37;0.75;;;0.75;;
68479;SDS011;55469;48.934;12.050;2022-07-12T05:52:03;1.35;;;0.93;;
68479;SDS011;55469;48.934;12.050;2022-07-12T05:54:48;1.73;;;0.70;;
68479;SDS011;55469;48.934;12.050;2022-07-12T05:57:14;1.20;;;1.10;;
68479;SDS011;55469;48.934;12.050;2022-07-12T05:59:40;0.70;;;0.70;;
68479;SDS011;55469;48.934;12.050;2022-07-12T06:02:06;0.80;;;0.80;;
68479;SDS011;55469;48.934;12.050;2022-07-12T06:04:32;1.20;;;0.80;;
68479;SDS011;55469;48.934;12.050;2022-07-12T06:06:58;2.22;;;0.82;;
68479;SDS011;55469;48.934;12.050;2022-07-12T06:09:24;1.23;;;1.02;;
68479;SDS011;55469;48.934;12.050;2022-07-12T06:11:49;0.90;;;0.90;;
68479;SDS011;55469;48.934;12.050;2022-07-12T06:14:15;1.90;;;1.00;;
68479;SDS011;55469;48.934;12.050;2022-07-12T06:16:41;1.02;;;0.90;;
68479;SDS011;55469;48.934;12.050;2022-07-12T06:19:07;0.70;;;0.70;;
68479;SDS011;55469;48.934;12.050;2022-07-12T06:21:32;1.25;;;0.80;;
68479;SDS011;55469;48.934;12.050;2022-07-12T06:23:58;1.05;;;0.70;;
68479;SDS011;55469;48.934;12.050;2022-07-12T06:26:24;1.15;;;0.90;;
68479;SDS011;55469;48.934;12.050;2022-07-12T06:28:50;1.17;;;0.90;;
68479;SDS011;55469;48.934;12.050;2022-07-12T06:31:16;1.00;;;0.90;;
68479;SDS011;55469;48.934;12.050;2022-07-12T06:33:42;1.75;;;1.10;;
68479;SDS011;55469;48.934;12.050;2022-07-12T06:36:08;1.58;;;0.85;;
68479;SDS011;55469;48.934;12.050;2022-07-12T06:38:34;0.85;;;0.85;;
68479;SDS011;55469;48.934;12.050;2022-07-12T06:40:59;1.35;;;0.70;;
68479;SDS011;55469;48.934;12.050;2022-07-12T06:43:25;1.10;;;1.00;;
68479;SDS011;55469;48.934;12.050;2022-07-12T06:45:51;1.75;;;0.90;;
68479;SDS011;55469;48.934;12.050;2022-07-12T06:48:17;0.82;;;0.80;;
68479;SDS011;55469;48.934;12.050;2022-07-12T06:50:42;1.08;;;0.98;;
68479;SDS011;55469;48.934;12.050;2022-07-12T06:53:10;0.88;;;0.88;;
68479;SDS011;55469;48.934;12.050;2022-07-12T06:55:37;0.82;;;0.80;;
68479;SDS011;55469;48.934;12.050;2022-07-12T06:58:03;1.08;;;0.93;;
68479;SDS011;55469;48.934;12.050;2022-07-12T07:00:29;2.00;;;0.90;;
68479;SDS011;55469;48.934;12.050;2022-07-12T07:02:56;1.42;;;0.82;;
68479;SDS011;55469;48.934;12.050;2022-07-12T07:05:22;0.90;;;0.90;;
68479;SDS011;55469;48.934;12.050;2022-07-12T07:07:48;1.10;;;1.00;;
68479;SDS011;55469;48.934;12.050;2022-07-12T07:10:13;1.20;;;1.10;;
68479;SDS011;55469;48.934;12.050;2022-07-12T07:12:39;1.23;;;1.00;;
68479;SDS011;55469;48.934;12.050;2022-07-12T07:15:06;1.52;;;1.10;;
68479;SDS011;55469;48.934;12.050;2022-07-12T07:17:32;1.58;;;1.20;;
68479;SDS011;55469;48.934;12.050;2022-07-12T07:19:58;1.30;;;1.15;;
68479;SDS011;55469;48.934;12.050;2022-07-12T07:22:24;1.23;;;1.05;;
68479;SDS011;55469;48.934;12.050;2022-07-12T07:24:50;1.15;;;0.90;;
68479;SDS011;55469;48.934;12.050;2022-07-12T07:27:15;1.45;;;1.00;;
68479;SDS011;55469;48.934;12.050;2022-07-12T07:29:41;1.45;;;0.90;;
68479;SDS011;55469;48.934;12.050;2022-07-12T07:32:25;1.02;;;1.00;;
68479;SDS011;55469;48.934;12.050;2022-07-12T07:34:51;1.42;;;1.08;;
68479;SDS011;55469;48.934;12.050;2022-07-12T07:37:17;1.42;;;1.10;;
68479;SDS011;55469;48.934;12.050;2022-07-12T07:39:43;1.02;;;1.00;;
68479;SDS011;55469;48.934;12.050;2022-07-12T07:42:08;2.63;;;1.05;;
68479;SDS011;55469;48.934;12.050;2022-07-12T07:44:34;1.52;;;1.10;;
68479;SDS011;55469;48.934;12.050;2022-07-12T07:47:00;1.45;;;1.10;;
68479;SDS011;55469;48.934;12.050;2022-07-12T07:49:26;1.00;;;1.00;;
68479;SDS011;55469;48.934;12.050;2022-07-12T07:51:51;1.33;;;0.98;;
68479;SDS011;55469;48.934;12.050;2022-07-12T07:54:17;1.80;;;1.05;;
68479;SDS011;55469;48.934;12.050;2022-07-12T07:56:43;1.65;;;0.90;;
68479;SDS011;55469;48.934;12.050;2022-07-12T07:59:09;1.10;;;1.00;;
68479;SDS011;55469;48.934;12.050;2022-07-12T08:01:34;1.10;;;1.00;;
68479;SDS011;55469;48.934;12.050;2022-07-12T08:04:17;1.30;;;1.00;;
68479;SDS011;55469;48.934;12.050;2022-07-12T08:06:45;1.90;;;1.00;;
68479;SDS011;55469;48.934;12.050;2022-07-12T08:09:13;1.17;;;1.00;;
68479;SDS011;55469;48.934;12.050;2022-07-12T08:11:39;1.33;;;1.10;;
68479;SDS011;55469;48.934;12.050;2022-07-12T08:14:05;1.17;;;1.00;;
68479;SDS011;55469;48.934;12.050;2022-07-12T08:16:33;1.25;;;1.15;;
68479;SDS011;55469;48.934;12.050;2022-07-12T08:18:59;1.25;;;1.02;;
68479;SDS011;55469;48.934;12.050;2022-07-12T08:21:26;1.67;;;0.90;;
68479;SDS011;55469;48.934;12.050;2022-07-12T08:23:52;1.52;;;1.00;;
68479;SDS011;55469;48.934;12.050;2022-07-12T08:26:18;2.08;;;1.00;;
68479;SDS011;55469;48.934;12.050;2022-07-12T08:28:44;0.85;;;0.85;;
68479;SDS011;55469;48.934;12.050;2022-07-12T08:31:10;1.23;;;1.10;;
68479;SDS011;55469;48.934;12.050;2022-07-12T08:33:38;1.42;;;1.00;;
68479;SDS011;55469;48.934;12.050;2022-07-12T08:36:05;1.13;;;1.00;;
68479;SDS011;55469;48.934;12.050;2022-07-12T08:38:33;0.90;;;0.90;;
68479;SDS011;55469;48.934;12.050;2022-07-12T08:41:01;1.15;;;1.00;;
68479;SDS011;55469;48.934;12.050;2022-07-12T08:43:29;1.63;;;1.08;;
68479;SDS011;55469;48.934;12.050;2022-07-12T08:46:04;0.93;;;0.93;;
68479;SDS011;55469;48.934;12.050;2022-07-12T08:48:32;1.08;;;0.95;;
68479;SDS011;55469;48.934;12.050;2022-07-12T08:51:05;1.27;;;1.02;;
68479;SDS011;55469;48.934;12.050;2022-07-12T08:53:33;1.05;;;0.90;;
68479;SDS011;55469;48.934;12.050;2022-07-12T08:55:59;1.00;;;0.90;;
68479;SDS011;55469;48.934;12.050;2022-07-12T08:58:27;1.58;;;1.15;;
68479;SDS011;55469;48.934;12.050;2022-07-12T09:00:53;1.30;;;1.20;;
68479;SDS011;55469;48.934;12.050;2022-07-12T09:03:18;1.30;;;1.00;;
68479;SDS011;55469;48.934;12.050;2022-07-12T09:05:48;0.98;;;0.98;;
68479;SDS011;55469;48.934;12.050;2022-07-12T09:13:48;2.78;;;1.00;;
68479;SDS011;55469;48.934;12.050;2022-07-12T09:16:20;1.08;;;1.05;;
68479;SDS011;55469;48.934;12.050;2022-07-12T09:18:51;1.30;;;1.00;;
68479;SDS011;55469;48.934;12.050;2022-07-12T09:21:46;1.02;;;0.98;;
68479;SDS011;55469;48.934;12.050;2022-07-12T09:24:17;1.95;;;1.10;;
68479;SDS011;55469;48.934;12.050;2022-07-12T09:26:44;1.15;;;1.02;;
68479;SDS011;55469;48.934;12.050;2022-07-12T09:29:12;0.90;;;0.90;;
68479;SDS011;55469;48.934;12.050;2022-07-12T09:31:42;1.48;;;0.90;;
68479;SDS011;55469;48.934;12.050;2022-07-12T09:34:31;1.05;;;1.00;;
68479;SDS011;55469;48.934;12.050;2022-07-12T09:39:49;1.30;;;1.20;;
68479;SDS011;55469;48.934;12.050;2022-07-12T09:42:18;0.98;;;0.98;;
68479;SDS011;55469;48.934;12.050;2022-07-12T09:44:45;1.77;;;1.00;;
68479;SDS011;55469;48.934;12.050;2022-07-12T09:47:12;1.00;;;0.90;;
68479;SDS011;55469;48.934;12.050;2022-07-12T09:49:41;0.90;;;0.90;;
68479;SDS011;55469;48.934;12.050;2022-07-12T09:52:23;1.00;;;1.00;;
68479;SDS011;55469;48.934;12.050;2022-07-12T09:54:52;1.10;;;1.00;;
68479;SDS011;55469;48.934;12.050;2022-07-12T09:57:20;1.33;;;0.93;;
68479;SDS011;55469;48.934;12.050;2022-07-12T09:59:57;1.10;;;1.00;;
68479;SDS011;55469;48.934;12.050;2022-07-12T10:02:25;1.77;;;1.00;;
68479;SDS011;55469;48.934;12.050;2022-07-12T10:04:53;1.95;;;1.00;;
68479;SDS011;55469;48.934;12.050;2022-07-12T10:07:20;1.63;;;1.17;;
68479;SDS011;55469;48.934;12.050;2022-07-12T10:09:47;0.93;;;0.90;;
68479;SDS011;55469;48.934;12.050;2022-07-12T10:12:17;0.90;;;0.85;;
68479;SDS011;55469;48.934;12.050;2022-07-12T10:14:45;1.92;;;1.00;;
68479;SDS011;55469;48.934;12.050;2022-07-12T10:17:21;1.00;;;0.90;;
68479;SDS011;55469;48.934;12.050;2022-07-12T10:19:47;1.00;;;1.00;;
68479;SDS011;55469;48.934;12.050;2022-07-12T10:22:20;1.20;;;1.10;;
68479;SDS011;55469;48.934;12.050;2022-07-12T10:24:47;1.13;;;1.02;;
68479;SDS011;55469;48.934;12.050;2022-07-12T10:29:43;0.90;;;0.90;;
68479;SDS011;55469;48.934;12.050;2022-07-12T10:32:21;1.75;;;1.00;;
68479;SDS011;55469;48.934;12.050;2022-07-12T10:34:59;0.80;;;0.80;;
68479;SDS011;55469;48.934;12.050;2022-07-12T10:37:34;0.80;;;0.80;;
68479;SDS011;55469;48.934;12.050;2022-07-12T10:45:31;1.10;;;1.00;;
68479;SDS011;55469;48.934;12.050;2022-07-12T10:56:06;0.90;;;0.90;;
68479;SDS011;55469;48.934;12.050;2022-07-12T10:58:35;0.93;;;0.80;;
68479;SDS011;55469;48.934;12.050;2022-07-12T11:01:09;0.90;;;0.90;;
68479;SDS011;55469;48.934;12.050;2022-07-12T11:06:16;0.98;;;0.98;;
68479;SDS011;55469;48.934;12.050;2022-07-12T11:09:00;1.85;;;0.82;;
68479;SDS011;55469;48.934;12.050;2022-07-12T11:11:30;0.80;;;0.80;;
68479;SDS011;55469;48.934;12.050;2022-07-12T11:14:05;0.80;;;0.80;;
68479;SDS011;55469;48.934;12.050;2022-07-12T11:16:31;0.77;;;0.77;;
68479;SDS011;55469;48.934;12.050;2022-07-12T11:18:57;1.25;;;0.70;;
68479;SDS011;55469;48.934;12.050;2022-07-12T11:21:23;0.90;;;0.90;;
68479;SDS011;55469;48.934;12.050;2022-07-12T11:23:50;0.80;;;0.80;;
68479;SDS011;55469;48.934;12.050;2022-07-12T11:26:16;1.00;;;0.90;;
68479;SDS011;55469;48.934;12.050;2022-07-12T11:28:43;1.25;;;0.90;;
68479;SDS011;55469;48.934;12.050;2022-07-12T11:31:13;1.15;;;0.90;;
68479;SDS011;55469;48.934;12.050;2022-07-12T11:33:46;1.67;;;0.90;;
68479;SDS011;55469;48.934;12.050;2022-07-12T11:38:42;0.80;;;0.80;;
68479;SDS011;55469;48.934;12.050;2022-07-12T11:41:10;0.90;;;0.90;;
68479;SDS011;55469;48.934;12.050;2022-07-12T11:43:38;1.20;;;1.10;;
68479;SDS011;55469;48.934;12.050;2022-07-12T11:46:05;0.95;;;0.80;;
68479;SDS011;55469;48.934;12.050;2022-07-12T11:48:32;1.33;;;0.70;;
68479;SDS011;55469;48.934;12.050;2022-07-12T11:51:02;1.15;;;0.90;;
68479;SDS011;55469;48.934;12.050;2022-07-12T11:53:33;0.82;;;0.82;;
68479;SDS011;55469;48.934;12.050;2022-07-12T11:56:01;1.00;;;1.00;;
68479;SDS011;55469;48.934;12.050;2022-07-12T11:58:28;0.90;;;0.90;;
68479;SDS011;55469;48.934;12.050;2022-07-12T12:00:55;1.75;;;0.80;;
68479;SDS011;55469;48.934;12.050;2022-07-12T12:03:22;0.90;;;0.90;;
68479;SDS011;55469;48.934;12.050;2022-07-12T12:05:49;0.85;;;0.85;;
68479;SDS011;55469;48.934;12.050;2022-07-12T12:08:20;0.95;;;0.90;;
68479;SDS011;55469;48.934;12.050;2022-07-12T12:10:54;0.80;;;0.80;;
68479;SDS011;55469;48.934;12.050;2022-07-12T12:13:22;0.73;;;0.73;;
68479;SDS011;55469;48.934;12.050;2022-07-12T12:18:39;0.88;;;0.70;;
68479;SDS011;55469;48.934;12.050;2022-07-12T12:21:12;0.75;;;0.75;;
68479;SDS011;55469;48.934;12.050;2022-07-12T12:23:39;0.88;;;0.88;;
68479;SDS011;55469;48.934;12.050;2022-07-12T12:28:50;1.00;;;0.93;;
68479;SDS011;55469;48.934;12.050;2022-07-12T12:31:18;1.08;;;0.82;;
68479;SDS011;55469;48.934;12.050;2022-07-12T12:33:46;0.73;;;0.73;;
68479;SDS011;55469;48.934;12.050;2022-07-12T12:38:46;0.75;;;0.75;;
68479;SDS011;55469;48.934;12.050;2022-07-12T12:41:20;0.80;;;0.80;;
68479;SDS011;55469;48.934;12.050;2022-07-12T12:43:56;0.70;;;0.70;;
68479;SDS011;55469;48.934;12.050;2022-07-12T12:46:46;2.15;;;0.80;;
68479;SDS011;55469;48.934;12.050;2022-07-12T12:49:42;0.73;;;0.68;;
68479;SDS011;55469;48.934;12.050;2022-07-12T12:52:16;0.63;;;0.60;;
68479;SDS011;55469;48.934;12.050;2022-07-12T12:54:43;0.95;;;0.70;;
68479;SDS011;55469;48.934;12.050;2022-07-12T12:57:10;0.68;;;0.68;;
68479;SDS011;55469;48.934;12.050;2022-07-12T12:59:37;0.85;;;0.85;;
68479;SDS011;55469;48.934;12.050;2022-07-12T13:02:03;1.55;;;0.80;;
68479;SDS011;55469;48.934;12.050;2022-07-12T13:04:32;1.45;;;0.60;;
68479;SDS011;55469;48.934;12.050;2022-07-12T13:07:00;0.68;;;0.68;;
68479;SDS011;55469;48.934;12.050;2022-07-12T13:09:27;0.60;;;0.60;;
68479;SDS011;55469;48.934;12.050;2022-07-12T13:11:54;0.57;;;0.57;;
68479;SDS011;55469;48.934;12.050;2022-07-12T13:14:21;1.00;;;0.70;;
68479;SDS011;55469;48.934;12.050;2022-07-12T13:16:47;0.60;;;0.60;;
68479;SDS011;55469;48.934;12.050;2022-07-12T13:19:13;0.77;;;0.50;;
68479;SDS011;55469;48.934;12.050;2022-07-12T13:21:39;0.85;;;0.60;;
68479;SDS011;55469;48.934;12.050;2022-07-12T13:24:05;1.15;;;0.80;;
68479;SDS011;55469;48.934;12.050;2022-07-12T13:26:31;1.00;;;0.70;;
68479;SDS011;55469;48.934;12.050;2022-07-12T13:28:57;0.60;;;0.60;;
68479;SDS011;55469;48.934;12.050;2022-07-12T13:31:22;0.60;;;0.60;;
68479;SDS011;55469;48.934;12.050;2022-07-12T13:33:50;1.02;;;0.68;;
68479;SDS011;55469;48.934;12.050;2022-07-12T13:36:15;1.15;;;0.70;;
68479;SDS011;55469;48.934;12.050;2022-07-12T13:38:42;0.70;;;0.50;;
68479;SDS011;55469;48.934;12.050;2022-07-12T13:41:07;1.08;;;0.60;;
68479;SDS011;55469;48.934;12.050;2022-07-12T13:43:33;2.40;;;0.80;;
68479;SDS011;55469;48.934;12.050;2022-07-12T13:45:59;1.55;;;0.63;;
68479;SDS011;55469;48.934;12.050;2022-07-12T13:48:25;0.55;;;0.55;;
68479;SDS011;55469;48.934;12.050;2022-07-12T13:50:51;2.20;;;0.70;;
68479;SDS011;55469;48.934;12.050;2022-07-12T13:53:17;0.70;;;0.65;;
68479;SDS011;55469;48.934;12.050;2022-07-12T13:55:43;0.50;;;0.50;;
68479;SDS011;55469;48.934;12.050;2022-07-12T13:58:10;0.50;;;0.50;;
68479;SDS011;55469;48.934;12.050;2022-07-12T14:00:37;0.65;;;0.65;;
68479;SDS011;55469;48.934;12.050;2022-07-12T14:03:03;0.85;;;0.60;;
68479;SDS011;55469;48.934;12.050;2022-07-12T14:05:28;0.68;;;0.55;;
68479;SDS011;55469;48.934;12.050;2022-07-12T14:07:57;0.60;;;0.60;;
68479;SDS011;55469;48.934;12.050;2022-07-12T14:10:23;0.60;;;0.50;;
68479;SDS011;55469;48.934;12.050;2022-07-12T14:12:50;1.50;;;0.60;;
68479;SDS011;55469;48.934;12.050;2022-07-12T14:15:16;0.63;;;0.63;;
68479;SDS011;55469;48.934;12.050;2022-07-12T14:18:01;0.50;;;0.50;;
68479;SDS011;55469;48.934;12.050;2022-07-12T14:20:30;0.88;;;0.60;;
68479;SDS011;55469;48.934;12.050;2022-07-12T14:23:01;1.00;;;0.55;;
68479;SDS011;55469;48.934;12.050;2022-07-12T14:25:38;0.52;;;0.52;;
68479;SDS011;55469;48.934;12.050;2022-07-12T14:28:13;0.63;;;0.55;;
68479;SDS011;55469;48.934;12.050;2022-07-12T14:30:45;0.50;;;0.50;;
68479;SDS011;55469;48.934;12.050;2022-07-12T14:33:11;0.43;;;0.43;;
68479;SDS011;55469;48.934;12.050;2022-07-12T14:35:40;1.00;;;0.50;;
68479;SDS011;55469;48.934;12.050;2022-07-12T14:38:08;0.50;;;0.50;;
68479;SDS011;55469;48.934;12.050;2022-07-12T14:40:40;1.55;;;0.55;;
68479;SDS011;55469;48.934;12.050;2022-07-12T14:43:06;0.50;;;0.50;;
68479;SDS011;55469;48.934;12.050;2022-07-12T14:45:41;1.85;;;0.50;;
68479;SDS011;55469;48.934;12.050;2022-07-12T14:48:10;0.73;;;0.60;;
68479;SDS011;55469;48.934;12.050;2022-07-12T14:50:37;0.63;;;0.60;;
68479;SDS011;55469;48.934;12.050;2022-07-12T14:53:06;0.52;;;0.40;;
68479;SDS011;55469;48.934;12.050;2022-07-12T14:55:35;0.60;;;0.60;;
68479;SDS011;55469;48.934;12.050;2022-07-12T14:58:12;0.60;;;0.57;;
68479;SDS011;55469;48.934;12.050;2022-07-12T15:00:41;1.48;;;0.60;;
68479;SDS011;55469;48.934;12.050;2022-07-12T15:03:07;0.47;;;0.47;;
68479;SDS011;55469;48.934;12.050;2022-07-12T15:05:37;0.60;;;0.60;;
68479;SDS011;55469;48.934;12.050;2022-07-12T15:08:05;0.50;;;0.50;;
68479;SDS011;55469;48.934;12.050;2022-07-12T15:10:38;0.63;;;0.60;;
68479;SDS011;55469;48.934;12.050;2022-07-12T15:13:07;0.43;;;0.43;;
68479;SDS011;55469;48.934;12.050;2022-07-12T15:15:34;0.50;;;0.50;;
68479;SDS011;55469;48.934;12.050;2022-07-12T15:18:02;1.17;;;0.55;;